Stewart, Alabama
Current Conditions -  °F | °C
As of 2:53 AM on Friday 24 Oct 2014 (Local Time) from KTCL Reporting Station
Clear Clear  
Wind Chill: 53°   Ceiling: Unl
Heat Index: 53°   Visibility: 10mi
Dew Point: 50°   Wind: 5mph
Humidity: 89%   Direction: 290°WNW
Pressure: 30.09"   Gusts: NA
Location:  32.8641°N, 87.6991°W
Report Text: KTCL 240753Z AUTO 29004KT 10SM CLR 12/10 A3009 RMK AO2 SLP189 T01170100
Loading
Personal Weather Stations






























Interactive Weather Map
Tropical Storm Tracking
New forecast layout! Learn more

10-Day Weather Forecast

Advertisements
Track Severe Weather on mobile